Knoxville, TN (37930)

1:12 PM EST on January 30, 2015 (GMT -0500)
Crestwood Hills | Change Station
CLOSE
Current Station
Personal Weather Station
Location: Knoxville, TN
Elevation: 988 ft
Nearby Weather Stations

Elev 988 ft 35.94 °N, 84.07 °W | Updated 25 seconds ago

Mostly Cloudy
Mostly Cloudy
40.6 °F
Feels Like 38 °F
N
3.6
Wind Variable Wind from NNE
Gusts 4.9 mph

Today
High -- | Low -- °F
--% Chance of Precip.
Yesterday
High -- | Low -- °F
Precip. -- in
7:38 AM 6:01 PM
Waxing Gibbous, 84% visible
Pressure 30.39 in
Visibility 10.0 miles
Clouds Mostly Cloudy 4800 ft
Windchill 38 °F
Dew Point 19 °F
Humidity 41%
Rainfall 0.00 in
Snow Depth Not available.
UV 2.0 out of 12
Pollen .60 out of 12
Air Quality Not available.
Flu Activity Not available.
METAR KTYS 301753Z 36008KT 10SM BKN048 04/M06 A3038 RMK AO2 SLP290 60000 T00441061 10050 20022 50002

More Conditions Fewer Conditions

Pressure 30.39 in
Visibility 10.0 miles
Clouds Mostly Cloudy 4800 ft
Windchill 38 °F
Dew Point 19 °F
Humidity 41%
Rainfall 0.00 in
Snow Depth Not available.
UV 2.0 out of 12
Pollen .60 out of 12
Air Quality Not available.
Flu Activity Not available.
METAR KTYS 301753Z 36008KT 10SM BKN048 04/M06 A3038 RMK AO2 SLP290 60000 T00441061 10050 20022 50002

More Conditions Fewer Conditions

10-Day Weather Forecast

Almanac

Astronomy

Jan. 30, 2015 Rise Set
Actual Time
Civil Twilight
Nautical Twilight
Astronomical Twilight
Moon
Length of Visible Light
Length of Day
Tomorrow will be .
, % of the Moon is Illuminated

Today's Extremes

State Highs State Lows

Community

WunderPhotos

Upload Photos

1,791,847 photos uploaded!

WunderBlogs® & News

Nearby

Air Quality

  Air Quality AQ Index Pollutant
Not available.

Snow Depth

Station Depth Elevation

Earthquake Activity

City Distance Mag. Time & Date
Minimum magnitude displayed is 2.5.

Coastal Water Temperatures

Place Temperature

Nearby Weather Stations